sensor_id;sensor_type;location;lat;lon;timestamp;temperature;humidity
30379;DHT22;17168;49.164;9.060;2024-01-07T00:01:56;13.20;75.60
30379;DHT22;17168;49.164;9.060;2024-01-07T00:04:29;13.20;75.60
30379;DHT22;17168;49.164;9.060;2024-01-07T00:07:01;13.10;75.50
30379;DHT22;17168;49.164;9.060;2024-01-07T00:09:33;13.10;75.60
30379;DHT22;17168;49.164;9.060;2024-01-07T00:12:06;13.20;75.60
30379;DHT22;17168;49.164;9.060;2024-01-07T00:14:41;13.20;75.40
30379;DHT22;17168;49.164;9.060;2024-01-07T00:17:13;13.20;75.30
30379;DHT22;17168;49.164;9.060;2024-01-07T00:19:46;13.10;75.10
30379;DHT22;17168;49.164;9.060;2024-01-07T00:22:18;13.10;74.80
30379;DHT22;17168;49.164;9.060;2024-01-07T00:24:50;13.10;74.70
30379;DHT22;17168;49.164;9.060;2024-01-07T00:27:23;13.00;74.70
30379;DHT22;17168;49.164;9.060;2024-01-07T00:29:58;13.10;74.70
30379;DHT22;17168;49.164;9.060;2024-01-07T00:32:30;13.10;74.50
30379;DHT22;17168;49.164;9.060;2024-01-07T00:35:03;13.10;74.40
30379;DHT22;17168;49.164;9.060;2024-01-07T00:37:35;13.10;74.30
30379;DHT22;17168;49.164;9.060;2024-01-07T00:40:09;13.00;74.70
30379;DHT22;17168;49.164;9.060;2024-01-07T00:42:41;13.00;74.20
30379;DHT22;17168;49.164;9.060;2024-01-07T00:45:16;13.00;74.30
30379;DHT22;17168;49.164;9.060;2024-01-07T00:47:48;13.10;74.20
30379;DHT22;17168;49.164;9.060;2024-01-07T00:50:21;13.00;73.80
30379;DHT22;17168;49.164;9.060;2024-01-07T00:52:53;12.90;73.40
30379;DHT22;17168;49.164;9.060;2024-01-07T00:55:25;12.60;73.30
30379;DHT22;17168;49.164;9.060;2024-01-07T01:01:20;11.80;74.30
30379;DHT22;17168;49.164;9.060;2024-01-07T01:03:53;11.30;75.10
30379;DHT22;17168;49.164;9.060;2024-01-07T01:06:25;11.00;76.00
30379;DHT22;17168;49.164;9.060;2024-01-07T01:08:57;10.60;76.70
30379;DHT22;17168;49.164;9.060;2024-01-07T01:11:30;10.30;77.60
30379;DHT22;17168;49.164;9.060;2024-01-07T01:14:02;10.00;78.40
30379;DHT22;17168;49.164;9.060;2024-01-07T01:16:37;9.80;79.20
30379;DHT22;17168;49.164;9.060;2024-01-07T01:19:09;9.50;80.00
30379;DHT22;17168;49.164;9.060;2024-01-07T01:21:41;9.30;80.70
30379;DHT22;17168;49.164;9.060;2024-01-07T01:24:13;9.10;81.40
30379;DHT22;17168;49.164;9.060;2024-01-07T01:26:46;8.90;82.20
30379;DHT22;17168;49.164;9.060;2024-01-07T01:29:18;8.80;83.00
30379;DHT22;17168;49.164;9.060;2024-01-07T01:31:53;8.60;83.70
30379;DHT22;17168;49.164;9.060;2024-01-07T01:34:25;8.50;84.50
30379;DHT22;17168;49.164;9.060;2024-01-07T01:36:57;8.40;85.10
30379;DHT22;17168;49.164;9.060;2024-01-07T01:39:30;8.30;85.80
30379;DHT22;17168;49.164;9.060;2024-01-07T01:42:02;8.20;86.50
30379;DHT22;17168;49.164;9.060;2024-01-07T01:44:34;8.10;87.30
30379;DHT22;17168;49.164;9.060;2024-01-07T01:47:10;8.00;88.20
30379;DHT22;17168;49.164;9.060;2024-01-07T01:49:43;7.90;89.00
30379;DHT22;17168;49.164;9.060;2024-01-07T01:52:16;7.80;89.90
30379;DHT22;17168;49.164;9.060;2024-01-07T01:54:48;7.80;90.40
30379;DHT22;17168;49.164;9.060;2024-01-07T01:57:22;7.70;90.80
30379;DHT22;17168;49.164;9.060;2024-01-07T01:59:56;7.70;91.30
30379;DHT22;17168;49.164;9.060;2024-01-07T02:02:37;7.70;91.70
30379;DHT22;17168;49.164;9.060;2024-01-07T02:05:09;7.60;92.20
30379;DHT22;17168;49.164;9.060;2024-01-07T02:07:41;7.50;92.70
30379;DHT22;17168;49.164;9.060;2024-01-07T02:10:14;7.50;93.20
30379;DHT22;17168;49.164;9.060;2024-01-07T02:12:46;7.50;93.70
30379;DHT22;17168;49.164;9.060;2024-01-07T02:15:19;7.50;94.20
30379;DHT22;17168;49.164;9.060;2024-01-07T02:17:54;7.40;94.80
30379;DHT22;17168;49.164;9.060;2024-01-07T02:20:27;7.40;95.30
30379;DHT22;17168;49.164;9.060;2024-01-07T02:22:59;7.40;95.80
30379;DHT22;17168;49.164;9.060;2024-01-07T02:25:37;7.40;96.30
30379;DHT22;17168;49.164;9.060;2024-01-07T02:28:10;7.40;96.70
30379;DHT22;17168;49.164;9.060;2024-01-07T02:30:42;7.40;97.00
30379;DHT22;17168;49.164;9.060;2024-01-07T02:33:15;7.40;97.30
30379;DHT22;17168;49.164;9.060;2024-01-07T02:35:48;7.40;97.60
30379;DHT22;17168;49.164;9.060;2024-01-07T02:38:20;7.40;97.90
30379;DHT22;17168;49.164;9.060;2024-01-07T02:40:55;7.30;98.10
30379;DHT22;17168;49.164;9.060;2024-01-07T02:43:27;7.30;98.40
30379;DHT22;17168;49.164;9.060;2024-01-07T02:45:59;7.30;98.70
30379;DHT22;17168;49.164;9.060;2024-01-07T02:48:31;7.30;98.90
30379;DHT22;17168;49.164;9.060;2024-01-07T02:51:04;7.30;99.20
30379;DHT22;17168;49.164;9.060;2024-01-07T02:53:37;7.30;99.50
30379;DHT22;17168;49.164;9.060;2024-01-07T02:56:12;7.20;99.70
30379;DHT22;17168;49.164;9.060;2024-01-07T02:58:44;7.20;99.80
30379;DHT22;17168;49.164;9.060;2024-01-07T03:01:16;7.20;99.90
30379;DHT22;17168;49.164;9.060;2024-01-07T03:03:49;7.20;99.90
30379;DHT22;17168;49.164;9.060;2024-01-07T03:06:21;7.20;99.90
30379;DHT22;17168;49.164;9.060;2024-01-07T03:08:54;7.20;99.90
30379;DHT22;17168;49.164;9.060;2024-01-07T03:11:29;7.10;99.90
30379;DHT22;17168;49.164;9.060;2024-01-07T03:14:01;7.10;99.90
30379;DHT22;17168;49.164;9.060;2024-01-07T03:16:34;7.10;99.90
30379;DHT22;17168;49.164;9.060;2024-01-07T03:19:06;7.10;99.90
30379;DHT22;17168;49.164;9.060;2024-01-07T03:21:39;7.10;99.90
30379;DHT22;17168;49.164;9.060;2024-01-07T03:24:11;7.10;99.90
30379;DHT22;17168;49.164;9.060;2024-01-07T03:26:46;7.10;99.90
30379;DHT22;17168;49.164;9.060;2024-01-07T03:29:18;7.10;99.90
30379;DHT22;17168;49.164;9.060;2024-01-07T03:31:51;7.10;99.90
30379;DHT22;17168;49.164;9.060;2024-01-07T03:34:24;7.10;99.90
30379;DHT22;17168;49.164;9.060;2024-01-07T03:36:57;7.10;99.90
30379;DHT22;17168;49.164;9.060;2024-01-07T03:39:32;7.10;99.90
30379;DHT22;17168;49.164;9.060;2024-01-07T03:42:07;7.10;99.90
30379;DHT22;17168;49.164;9.060;2024-01-07T03:44:43;7.10;99.90
30379;DHT22;17168;49.164;9.060;2024-01-07T03:47:16;7.10;99.90
30379;DHT22;17168;49.164;9.060;2024-01-07T03:49:48;7.10;99.90
30379;DHT22;17168;49.164;9.060;2024-01-07T03:52:22;7.10;99.90
30379;DHT22;17168;49.164;9.060;2024-01-07T03:54:55;7.00;99.90
30379;DHT22;17168;49.164;9.060;2024-01-07T03:57:30;7.00;99.90
30379;DHT22;17168;49.164;9.060;2024-01-07T04:00:02;7.10;99.90
30379;DHT22;17168;49.164;9.060;2024-01-07T04:02:36;7.00;99.90
30379;DHT22;17168;49.164;9.060;2024-01-07T04:05:09;7.00;99.90
30379;DHT22;17168;49.164;9.060;2024-01-07T04:07:41;7.00;99.90
30379;DHT22;17168;49.164;9.060;2024-01-07T04:10:15;7.00;99.90
30379;DHT22;17168;49.164;9.060;2024-01-07T04:12:50;7.00;99.90
30379;DHT22;17168;49.164;9.060;2024-01-07T04:15:24;6.90;99.90
30379;DHT22;17168;49.164;9.060;2024-01-07T04:17:57;6.90;99.90
30379;DHT22;17168;49.164;9.060;2024-01-07T04:20:29;6.90;99.90
30379;DHT22;17168;49.164;9.060;2024-01-07T04:23:01;6.90;99.90
30379;DHT22;17168;49.164;9.060;2024-01-07T04:25:34;6.90;99.90
30379;DHT22;17168;49.164;9.060;2024-01-07T04:28:09;6.90;99.90
30379;DHT22;17168;49.164;9.060;2024-01-07T04:30:42;6.90;99.90
30379;DHT22;17168;49.164;9.060;2024-01-07T04:33:14;6.90;99.90
30379;DHT22;17168;49.164;9.060;2024-01-07T04:35:46;6.90;99.90
30379;DHT22;17168;49.164;9.060;2024-01-07T04:38:18;6.90;99.90
30379;DHT22;17168;49.164;9.060;2024-01-07T04:40:51;6.90;99.90
30379;DHT22;17168;49.164;9.060;2024-01-07T04:43:26;6.90;99.90
30379;DHT22;17168;49.164;9.060;2024-01-07T04:45:58;6.90;99.90
30379;DHT22;17168;49.164;9.060;2024-01-07T04:48:30;6.90;99.90
30379;DHT22;17168;49.164;9.060;2024-01-07T04:51:03;6.90;99.90
30379;DHT22;17168;49.164;9.060;2024-01-07T04:53:36;6.80;99.90
30379;DHT22;17168;49.164;9.060;2024-01-07T04:56:08;6.90;99.90
30379;DHT22;17168;49.164;9.060;2024-01-07T04:58:43;6.80;99.90
30379;DHT22;17168;49.164;9.060;2024-01-07T05:01:15;6.80;99.90
30379;DHT22;17168;49.164;9.060;2024-01-07T05:03:47;6.80;99.90
30379;DHT22;17168;49.164;9.060;2024-01-07T05:06:20;6.80;99.90
30379;DHT22;17168;49.164;9.060;2024-01-07T05:08:52;6.80;99.90
30379;DHT22;17168;49.164;9.060;2024-01-07T05:11:24;6.80;99.90
30379;DHT22;17168;49.164;9.060;2024-01-07T05:13:59;6.80;99.90
30379;DHT22;17168;49.164;9.060;2024-01-07T05:16:31;6.80;99.90
30379;DHT22;17168;49.164;9.060;2024-01-07T05:19:04;6.80;99.90
30379;DHT22;17168;49.164;9.060;2024-01-07T05:21:36;6.80;99.90
30379;DHT22;17168;49.164;9.060;2024-01-07T05:24:09;6.80;99.90
30379;DHT22;17168;49.164;9.060;2024-01-07T05:26:43;6.80;99.90
30379;DHT22;17168;49.164;9.060;2024-01-07T05:29:18;6.80;99.90
30379;DHT22;17168;49.164;9.060;2024-01-07T05:31:50;6.80;99.90
30379;DHT22;17168;49.164;9.060;2024-01-07T05:34:23;6.80;99.90
30379;DHT22;17168;49.164;9.060;2024-01-07T05:36:55;6.80;99.90
30379;DHT22;17168;49.164;9.060;2024-01-07T05:39:28;6.80;99.90
30379;DHT22;17168;49.164;9.060;2024-01-07T05:42:00;6.80;99.90
30379;DHT22;17168;49.164;9.060;2024-01-07T05:44:35;6.80;99.90
30379;DHT22;17168;49.164;9.060;2024-01-07T05:47:07;6.90;99.90
30379;DHT22;17168;49.164;9.060;2024-01-07T05:49:39;6.90;99.90
30379;DHT22;17168;49.164;9.060;2024-01-07T05:52:12;6.90;99.90
30379;DHT22;17168;49.164;9.060;2024-01-07T05:54:44;6.90;99.90
30379;DHT22;17168;49.164;9.060;2024-01-07T05:57:16;6.90;99.90
30379;DHT22;17168;49.164;9.060;2024-01-07T05:59:51;6.90;99.90
30379;DHT22;17168;49.164;9.060;2024-01-07T06:02:25;6.90;99.90
30379;DHT22;17168;49.164;9.060;2024-01-07T06:04:58;6.80;99.90
30379;DHT22;17168;49.164;9.060;2024-01-07T06:07:30;6.80;99.90
30379;DHT22;17168;49.164;9.060;2024-01-07T06:10:03;6.80;99.90
30379;DHT22;17168;49.164;9.060;2024-01-07T06:12:35;6.80;99.90
30379;DHT22;17168;49.164;9.060;2024-01-07T06:15:11;6.80;99.90
30379;DHT22;17168;49.164;9.060;2024-01-07T06:17:43;6.80;99.90
30379;DHT22;17168;49.164;9.060;2024-01-07T06:20:18;6.80;99.90
30379;DHT22;17168;49.164;9.060;2024-01-07T06:22:50;6.80;99.90
30379;DHT22;17168;49.164;9.060;2024-01-07T06:25:22;6.80;99.90
30379;DHT22;17168;49.164;9.060;2024-01-07T06:27:58;6.80;99.90
30379;DHT22;17168;49.164;9.060;2024-01-07T06:30:33;6.80;99.90
30379;DHT22;17168;49.164;9.060;2024-01-07T06:33:06;6.80;99.90
30379;DHT22;17168;49.164;9.060;2024-01-07T06:35:38;6.80;99.90
30379;DHT22;17168;49.164;9.060;2024-01-07T06:38:10;6.80;99.90
30379;DHT22;17168;49.164;9.060;2024-01-07T06:40:43;6.80;99.90
30379;DHT22;17168;49.164;9.060;2024-01-07T06:43:15;6.80;99.90
30379;DHT22;17168;49.164;9.060;2024-01-07T06:45:50;6.70;99.90
30379;DHT22;17168;49.164;9.060;2024-01-07T06:48:22;6.70;99.90
30379;DHT22;17168;49.164;9.060;2024-01-07T06:50:54;6.70;99.90
30379;DHT22;17168;49.164;9.060;2024-01-07T06:53:27;6.70;99.90
30379;DHT22;17168;49.164;9.060;2024-01-07T06:55:59;6.70;99.90
30379;DHT22;17168;49.164;9.060;2024-01-07T06:58:31;6.70;99.90
30379;DHT22;17168;49.164;9.060;2024-01-07T07:01:09;6.70;99.70
30379;DHT22;17168;49.164;9.060;2024-01-07T07:03:42;6.70;99.50
30379;DHT22;17168;49.164;9.060;2024-01-07T07:06:14;6.70;99.40
30379;DHT22;17168;49.164;9.060;2024-01-07T07:08:46;6.60;99.30
30379;DHT22;17168;49.164;9.060;2024-01-07T07:11:18;6.60;99.10
30379;DHT22;17168;49.164;9.060;2024-01-07T07:13:54;6.70;99.00
30379;DHT22;17168;49.164;9.060;2024-01-07T07:16:29;6.70;98.60
30379;DHT22;17168;49.164;9.060;2024-01-07T07:19:01;6.60;98.40
30379;DHT22;17168;49.164;9.060;2024-01-07T07:21:34;6.60;98.10
30379;DHT22;17168;49.164;9.060;2024-01-07T07:24:06;6.60;98.00
30379;DHT22;17168;49.164;9.060;2024-01-07T07:26:39;6.60;97.80
30379;DHT22;17168;49.164;9.060;2024-01-07T07:29:12;6.60;97.60
30379;DHT22;17168;49.164;9.060;2024-01-07T07:31:47;6.60;97.60
30379;DHT22;17168;49.164;9.060;2024-01-07T07:34:20;6.60;97.60
30379;DHT22;17168;49.164;9.060;2024-01-07T07:36:53;6.60;97.40
30379;DHT22;17168;49.164;9.060;2024-01-07T07:39:25;6.60;97.40
30379;DHT22;17168;49.164;9.060;2024-01-07T07:41:58;6.60;97.30
30379;DHT22;17168;49.164;9.060;2024-01-07T07:44:30;6.60;97.30
30379;DHT22;17168;49.164;9.060;2024-01-07T07:47:05;6.60;97.20
30379;DHT22;17168;49.164;9.060;2024-01-07T07:49:38;6.60;97.10
30379;DHT22;17168;49.164;9.060;2024-01-07T07:52:12;6.60;96.90
30379;DHT22;17168;49.164;9.060;2024-01-07T07:54:46;6.60;96.60
30379;DHT22;17168;49.164;9.060;2024-01-07T07:57:19;6.60;96.30
30379;DHT22;17168;49.164;9.060;2024-01-07T07:59:52;6.60;96.10
30379;DHT22;17168;49.164;9.060;2024-01-07T08:02:27;6.60;96.00
30379;DHT22;17168;49.164;9.060;2024-01-07T08:05:00;6.60;95.80
30379;DHT22;17168;49.164;9.060;2024-01-07T08:07:32;6.60;95.70
30379;DHT22;17168;49.164;9.060;2024-01-07T08:10:06;6.50;95.70
30379;DHT22;17168;49.164;9.060;2024-01-07T08:12:40;6.60;95.70
30379;DHT22;17168;49.164;9.060;2024-01-07T08:15:15;6.60;95.60
30379;DHT22;17168;49.164;9.060;2024-01-07T08:17:50;6.50;95.40
30379;DHT22;17168;49.164;9.060;2024-01-07T08:20:23;6.60;95.00
30379;DHT22;17168;49.164;9.060;2024-01-07T08:22:56;6.50;94.80
30379;DHT22;17168;49.164;9.060;2024-01-07T08:25:28;6.50;94.70
30379;DHT22;17168;49.164;9.060;2024-01-07T08:28:00;6.50;94.40
30379;DHT22;17168;49.164;9.060;2024-01-07T08:30:32;6.50;94.00
30379;DHT22;17168;49.164;9.060;2024-01-07T08:33:07;6.50;93.40
30379;DHT22;17168;49.164;9.060;2024-01-07T08:35:40;6.40;93.00
30379;DHT22;17168;49.164;9.060;2024-01-07T08:38:12;6.40;92.70
30379;DHT22;17168;49.164;9.060;2024-01-07T08:40:44;6.40;92.70
30379;DHT22;17168;49.164;9.060;2024-01-07T08:43:17;6.40;92.40
30379;DHT22;17168;49.164;9.060;2024-01-07T08:45:49;6.40;92.20
30379;DHT22;17168;49.164;9.060;2024-01-07T08:48:24;6.40;92.20
30379;DHT22;17168;49.164;9.060;2024-01-07T08:50:57;6.40;92.10
30379;DHT22;17168;49.164;9.060;2024-01-07T08:53:29;6.40;91.90
30379;DHT22;17168;49.164;9.060;2024-01-07T08:56:01;6.30;91.70
30379;DHT22;17168;49.164;9.060;2024-01-07T08:58:34;6.30;91.50
30379;DHT22;17168;49.164;9.060;2024-01-07T09:01:06;6.30;91.40
30379;DHT22;17168;49.164;9.060;2024-01-07T09:03:41;6.30;91.30
30379;DHT22;17168;49.164;9.060;2024-01-07T09:06:14;6.40;91.40
30379;DHT22;17168;49.164;9.060;2024-01-07T09:08:46;6.40;91.30
30379;DHT22;17168;49.164;9.060;2024-01-07T09:11:19;6.30;91.20
30379;DHT22;17168;49.164;9.060;2024-01-07T09:13:51;6.30;91.00
30379;DHT22;17168;49.164;9.060;2024-01-07T09:16:23;6.30;90.90
30379;DHT22;17168;49.164;9.060;2024-01-07T09:18:58;6.30;90.40
30379;DHT22;17168;49.164;9.060;2024-01-07T09:21:30;6.30;90.10
30379;DHT22;17168;49.164;9.060;2024-01-07T09:24:04;6.30;89.60
30379;DHT22;17168;49.164;9.060;2024-01-07T09:26:36;6.20;89.10
30379;DHT22;17168;49.164;9.060;2024-01-07T09:29:09;6.20;88.60
30379;DHT22;17168;49.164;9.060;2024-01-07T09:31:42;6.20;88.60
30379;DHT22;17168;49.164;9.060;2024-01-07T09:34:17;6.10;88.80
30379;DHT22;17168;49.164;9.060;2024-01-07T09:36:50;6.10;88.50
30379;DHT22;17168;49.164;9.060;2024-01-07T09:39:22;6.10;87.90
30379;DHT22;17168;49.164;9.060;2024-01-07T09:41:54;6.10;87.80
30379;DHT22;17168;49.164;9.060;2024-01-07T09:44:27;6.00;87.50
30379;DHT22;17168;49.164;9.060;2024-01-07T09:46:59;6.00;87.30
30379;DHT22;17168;49.164;9.060;2024-01-07T09:49:34;6.00;86.20
30379;DHT22;17168;49.164;9.060;2024-01-07T09:52:08;6.00;85.40
30379;DHT22;17168;49.164;9.060;2024-01-07T09:54:41;5.90;84.90
30379;DHT22;17168;49.164;9.060;2024-01-07T09:57:13;5.90;84.90
30379;DHT22;17168;49.164;9.060;2024-01-07T09:59:46;5.90;84.90
30379;DHT22;17168;49.164;9.060;2024-01-07T10:02:20;5.90;84.70
30379;DHT22;17168;49.164;9.060;2024-01-07T10:04:55;5.90;84.50
30379;DHT22;17168;49.164;9.060;2024-01-07T10:07:27;5.90;84.70
30379;DHT22;17168;49.164;9.060;2024-01-07T10:10:11;6.00;85.10
30379;DHT22;17168;49.164;9.060;2024-01-07T10:12:44;6.00;85.30
30379;DHT22;17168;49.164;9.060;2024-01-07T10:15:18;6.00;85.50
30379;DHT22;17168;49.164;9.060;2024-01-07T10:17:55;6.00;85.70
30379;DHT22;17168;49.164;9.060;2024-01-07T10:20:31;6.00;85.80
30379;DHT22;17168;49.164;9.060;2024-01-07T10:23:04;6.00;85.20
30379;DHT22;17168;49.164;9.060;2024-01-07T10:25:36;6.00;85.50
30379;DHT22;17168;49.164;9.060;2024-01-07T10:28:09;6.00;85.20
30379;DHT22;17168;49.164;9.060;2024-01-07T10:30:48;6.00;85.00
30379;DHT22;17168;49.164;9.060;2024-01-07T10:33:21;6.10;85.30
30379;DHT22;17168;49.164;9.060;2024-01-07T10:36:01;6.10;85.30
30379;DHT22;17168;49.164;9.060;2024-01-07T10:38:36;6.10;85.00
30379;DHT22;17168;49.164;9.060;2024-01-07T10:41:12;6.10;84.50
30379;DHT22;17168;49.164;9.060;2024-01-07T10:43:46;6.10;84.60
30379;DHT22;17168;49.164;9.060;2024-01-07T10:46:20;6.00;84.70
30379;DHT22;17168;49.164;9.060;2024-01-07T10:48:55;6.00;84.20
30379;DHT22;17168;49.164;9.060;2024-01-07T10:51:33;6.00;84.30
30379;DHT22;17168;49.164;9.060;2024-01-07T10:54:06;6.00;84.40
30379;DHT22;17168;49.164;9.060;2024-01-07T10:56:45;5.90;84.30
30379;DHT22;17168;49.164;9.060;2024-01-07T10:59:21;5.90;84.10
30379;DHT22;17168;49.164;9.060;2024-01-07T11:01:55;5.90;84.10
30379;DHT22;17168;49.164;9.060;2024-01-07T11:04:40;5.90;84.20
30379;DHT22;17168;49.164;9.060;2024-01-07T11:07:22;5.90;84.50
30379;DHT22;17168;49.164;9.060;2024-01-07T11:10:02;5.90;84.70
30379;DHT22;17168;49.164;9.060;2024-01-07T11:12:37;5.90;84.60
30379;DHT22;17168;49.164;9.060;2024-01-07T11:15:09;5.90;84.20
30379;DHT22;17168;49.164;9.060;2024-01-07T11:17:42;5.80;83.80
30379;DHT22;17168;49.164;9.060;2024-01-07T11:20:21;5.80;83.40
30379;DHT22;17168;49.164;9.060;2024-01-07T11:23:26;5.80;83.70
30379;DHT22;17168;49.164;9.060;2024-01-07T11:25:59;5.80;83.10
30379;DHT22;17168;49.164;9.060;2024-01-07T11:28:49;5.70;83.00
30379;DHT22;17168;49.164;9.060;2024-01-07T11:31:45;5.70;82.70
30379;DHT22;17168;49.164;9.060;2024-01-07T11:34:38;5.70;82.60
30379;DHT22;17168;49.164;9.060;2024-01-07T11:37:11;5.70;82.20
30379;DHT22;17168;49.164;9.060;2024-01-07T11:39:50;5.60;82.10
30379;DHT22;17168;49.164;9.060;2024-01-07T11:42:23;5.60;82.10
30379;DHT22;17168;49.164;9.060;2024-01-07T11:44:56;5.60;82.30
30379;DHT22;17168;49.164;9.060;2024-01-07T11:47:28;5.60;82.40
30379;DHT22;17168;49.164;9.060;2024-01-07T11:50:00;5.60;82.40
30379;DHT22;17168;49.164;9.060;2024-01-07T11:52:33;5.60;82.70
30379;DHT22;17168;49.164;9.060;2024-01-07T11:55:11;5.60;82.80
30379;DHT22;17168;49.164;9.060;2024-01-07T11:57:44;5.50;82.40
30379;DHT22;17168;49.164;9.060;2024-01-07T12:00:16;5.50;82.10
30379;DHT22;17168;49.164;9.060;2024-01-07T12:02:49;5.50;82.20
30379;DHT22;17168;49.164;9.060;2024-01-07T12:05:21;5.50;82.20
30379;DHT22;17168;49.164;9.060;2024-01-07T12:07:53;5.40;82.30
30379;DHT22;17168;49.164;9.060;2024-01-07T12:10:28;5.40;82.40
30379;DHT22;17168;49.164;9.060;2024-01-07T12:13:01;5.50;82.60
30379;DHT22;17168;49.164;9.060;2024-01-07T12:15:35;5.40;82.60
30379;DHT22;17168;49.164;9.060;2024-01-07T12:18:09;5.40;82.70
30379;DHT22;17168;49.164;9.060;2024-01-07T12:20:41;5.40;82.60
30379;DHT22;17168;49.164;9.060;2024-01-07T12:23:13;5.30;82.40
30379;DHT22;17168;49.164;9.060;2024-01-07T12:25:48;5.30;82.50
30379;DHT22;17168;49.164;9.060;2024-01-07T12:28:20;5.30;82.60
30379;DHT22;17168;49.164;9.060;2024-01-07T12:30:54;5.20;82.70
30379;DHT22;17168;49.164;9.060;2024-01-07T12:33:26;5.20;82.90
30379;DHT22;17168;49.164;9.060;2024-01-07T12:35:59;5.20;82.90
30379;DHT22;17168;49.164;9.060;2024-01-07T12:38:32;5.10;82.60
30379;DHT22;17168;49.164;9.060;2024-01-07T12:41:07;5.10;82.40
30379;DHT22;17168;49.164;9.060;2024-01-07T12:43:39;5.10;82.40
30379;DHT22;17168;49.164;9.060;2024-01-07T12:46:12;5.00;82.40
30379;DHT22;17168;49.164;9.060;2024-01-07T12:48:44;5.00;82.40
30379;DHT22;17168;49.164;9.060;2024-01-07T12:51:16;4.90;82.30
30379;DHT22;17168;49.164;9.060;2024-01-07T12:53:53;4.90;82.60
30379;DHT22;17168;49.164;9.060;2024-01-07T12:56:28;4.90;82.60
30379;DHT22;17168;49.164;9.060;2024-01-07T12:59:00;4.90;82.60
30379;DHT22;17168;49.164;9.060;2024-01-07T13:01:32;4.90;82.70
30379;DHT22;17168;49.164;9.060;2024-01-07T13:04:05;4.80;82.90
30379;DHT22;17168;49.164;9.060;2024-01-07T13:06:37;4.80;83.00
30379;DHT22;17168;49.164;9.060;2024-01-07T13:09:10;4.80;82.70
30379;DHT22;17168;49.164;9.060;2024-01-07T13:11:45;4.70;82.90
30379;DHT22;17168;49.164;9.060;2024-01-07T13:14:17;4.80;83.00
30379;DHT22;17168;49.164;9.060;2024-01-07T13:16:49;4.70;82.90
30379;DHT22;17168;49.164;9.060;2024-01-07T13:19:21;4.70;82.90
30379;DHT22;17168;49.164;9.060;2024-01-07T13:21:54;4.70;82.90
30379;DHT22;17168;49.164;9.060;2024-01-07T13:24:31;4.70;83.00
30379;DHT22;17168;49.164;9.060;2024-01-07T13:27:06;4.70;82.90
30379;DHT22;17168;49.164;9.060;2024-01-07T13:29:40;4.60;82.50
30379;DHT22;17168;49.164;9.060;2024-01-07T13:32:13;4.60;82.60
30379;DHT22;17168;49.164;9.060;2024-01-07T13:34:51;4.50;82.60
30379;DHT22;17168;49.164;9.060;2024-01-07T13:37:24;4.50;82.30
30379;DHT22;17168;49.164;9.060;2024-01-07T13:39:56;4.40;82.80
30379;DHT22;17168;49.164;9.060;2024-01-07T13:42:31;4.40;82.30
30379;DHT22;17168;49.164;9.060;2024-01-07T13:45:05;4.40;82.20
30379;DHT22;17168;49.164;9.060;2024-01-07T13:47:37;4.30;82.20
30379;DHT22;17168;49.164;9.060;2024-01-07T13:50:10;4.40;82.60
30379;DHT22;17168;49.164;9.060;2024-01-07T13:52:43;4.30;82.50
30379;DHT22;17168;49.164;9.060;2024-01-07T13:55:15;4.30;82.40
30379;DHT22;17168;49.164;9.060;2024-01-07T13:57:50;4.20;82.20
30379;DHT22;17168;49.164;9.060;2024-01-07T14:00:22;4.20;82.10
30379;DHT22;17168;49.164;9.060;2024-01-07T14:02:54;4.20;82.30
30379;DHT22;17168;49.164;9.060;2024-01-07T14:05:27;4.20;82.30
30379;DHT22;17168;49.164;9.060;2024-01-07T14:07:59;4.20;82.20
30379;DHT22;17168;49.164;9.060;2024-01-07T14:10:31;4.20;82.50
30379;DHT22;17168;49.164;9.060;2024-01-07T14:13:07;4.20;82.70
30379;DHT22;17168;49.164;9.060;2024-01-07T14:15:39;4.10;82.60
30379;DHT22;17168;49.164;9.060;2024-01-07T14:18:12;4.10;82.50
30379;DHT22;17168;49.164;9.060;2024-01-07T14:20:48;4.10;82.30
30379;DHT22;17168;49.164;9.060;2024-01-07T14:23:20;4.00;82.10
30379;DHT22;17168;49.164;9.060;2024-01-07T14:25:52;4.00;82.00
30379;DHT22;17168;49.164;9.060;2024-01-07T14:28:27;4.00;82.30
30379;DHT22;17168;49.164;9.060;2024-01-07T14:30:59;4.00;82.60
30379;DHT22;17168;49.164;9.060;2024-01-07T14:33:31;4.00;82.70
30379;DHT22;17168;49.164;9.060;2024-01-07T14:36:05;4.00;82.70
30379;DHT22;17168;49.164;9.060;2024-01-07T14:38:37;3.90;82.60
30379;DHT22;17168;49.164;9.060;2024-01-07T14:41:09;3.90;82.60
30379;DHT22;17168;49.164;9.060;2024-01-07T14:43:44;3.90;82.80
30379;DHT22;17168;49.164;9.060;2024-01-07T14:46:16;3.90;83.00
30379;DHT22;17168;49.164;9.060;2024-01-07T14:48:48;3.90;83.10
30379;DHT22;17168;49.164;9.060;2024-01-07T14:51:21;3.90;83.30
30379;DHT22;17168;49.164;9.060;2024-01-07T14:53:53;3.90;83.00
30379;DHT22;17168;49.164;9.060;2024-01-07T14:56:26;3.90;82.70
30379;DHT22;17168;49.164;9.060;2024-01-07T14:59:01;3.90;82.50
30379;DHT22;17168;49.164;9.060;2024-01-07T15:01:33;3.80;82.50
30379;DHT22;17168;49.164;9.060;2024-01-07T15:04:05;3.90;82.80
30379;DHT22;17168;49.164;9.060;2024-01-07T15:06:41;3.90;82.80
30379;DHT22;17168;49.164;9.060;2024-01-07T15:09:13;3.90;82.60
30379;DHT22;17168;49.164;9.060;2024-01-07T15:11:47;3.80;82.50
30379;DHT22;17168;49.164;9.060;2024-01-07T15:14:23;3.80;82.40
30379;DHT22;17168;49.164;9.060;2024-01-07T15:16:55;3.70;82.30
30379;DHT22;17168;49.164;9.060;2024-01-07T15:19:28;3.70;82.20
30379;DHT22;17168;49.164;9.060;2024-01-07T15:22:02;3.70;82.40
30379;DHT22;17168;49.164;9.060;2024-01-07T15:24:35;3.60;82.50
30379;DHT22;17168;49.164;9.060;2024-01-07T15:27:07;3.60;82.50
30379;DHT22;17168;49.164;9.060;2024-01-07T15:29:43;3.60;82.40
30379;DHT22;17168;49.164;9.060;2024-01-07T15:32:15;3.60;82.40
30379;DHT22;17168;49.164;9.060;2024-01-07T15:34:47;3.60;82.60
30379;DHT22;17168;49.164;9.060;2024-01-07T15:37:20;3.60;82.60
30379;DHT22;17168;49.164;9.060;2024-01-07T15:39:54;3.60;82.40
30379;DHT22;17168;49.164;9.060;2024-01-07T15:42:29;3.50;82.20
30379;DHT22;17168;49.164;9.060;2024-01-07T15:45:09;3.50;82.30
30379;DHT22;17168;49.164;9.060;2024-01-07T15:48:03;3.50;82.30
30379;DHT22;17168;49.164;9.060;2024-01-07T15:50:35;3.50;82.20
30379;DHT22;17168;49.164;9.060;2024-01-07T15:53:09;3.50;82.20
30379;DHT22;17168;49.164;9.060;2024-01-07T15:55:43;3.50;82.40
30379;DHT22;17168;49.164;9.060;2024-01-07T15:58:45;3.40;81.80
30379;DHT22;17168;49.164;9.060;2024-01-07T16:01:27;3.40;82.20
30379;DHT22;17168;49.164;9.060;2024-01-07T16:04:00;3.40;82.00
30379;DHT22;17168;49.164;9.060;2024-01-07T16:06:32;3.40;82.10
30379;DHT22;17168;49.164;9.060;2024-01-07T16:09:04;3.40;82.10
30379;DHT22;17168;49.164;9.060;2024-01-07T16:11:37;3.40;82.10
30379;DHT22;17168;49.164;9.060;2024-01-07T16:14:09;3.40;82.30
30379;DHT22;17168;49.164;9.060;2024-01-07T16:16:45;3.40;82.30
30379;DHT22;17168;49.164;9.060;2024-01-07T16:19:17;3.30;82.10
30379;DHT22;17168;49.164;9.060;2024-01-07T16:21:50;3.30;82.00
30379;DHT22;17168;49.164;9.060;2024-01-07T16:24:24;3.30;82.00
30379;DHT22;17168;49.164;9.060;2024-01-07T16:27:11;3.30;82.20
30379;DHT22;17168;49.164;9.060;2024-01-07T16:29:44;3.20;82.20